sensor_id;sensor_type;location;lat;lon;timestamp;P1;durP1;ratioP1;P2;durP2;ratioP2
48205;SDS011;33995;48.202;16.260;2023-11-18T00:00:47;4.27;;;3.87;;
48205;SDS011;33995;48.202;16.260;2023-11-18T00:03:14;4.23;;;3.83;;
48205;SDS011;33995;48.202;16.260;2023-11-18T00:05:41;4.27;;;3.63;;
48205;SDS011;33995;48.202;16.260;2023-11-18T00:08:08;4.23;;;3.83;;
48205;SDS011;33995;48.202;16.260;2023-11-18T00:10:35;4.00;;;3.60;;
48205;SDS011;33995;48.202;16.260;2023-11-18T00:13:03;3.87;;;3.57;;
48205;SDS011;33995;48.202;16.260;2023-11-18T00:15:30;3.80;;;3.20;;
48205;SDS011;33995;48.202;16.260;2023-11-18T00:17:57;3.70;;;3.40;;
48205;SDS011;33995;48.202;16.260;2023-11-18T00:20:24;3.80;;;3.40;;
48205;SDS011;33995;48.202;16.260;2023-11-18T00:22:51;3.90;;;3.50;;
48205;SDS011;33995;48.202;16.260;2023-11-18T00:25:19;3.80;;;3.40;;
48205;SDS011;33995;48.202;16.260;2023-11-18T00:27:46;4.33;;;3.70;;
48205;SDS011;33995;48.202;16.260;2023-11-18T00:30:14;3.90;;;3.50;;
48205;SDS011;33995;48.202;16.260;2023-11-18T00:32:41;4.23;;;3.50;;
48205;SDS011;33995;48.202;16.260;2023-11-18T00:35:11;3.60;;;3.30;;
48205;SDS011;33995;48.202;16.260;2023-11-18T00:37:38;3.67;;;3.37;;
48205;SDS011;33995;48.202;16.260;2023-11-18T00:40:07;3.73;;;3.33;;
48205;SDS011;33995;48.202;16.260;2023-11-18T00:42:35;3.87;;;3.40;;
48205;SDS011;33995;48.202;16.260;2023-11-18T00:45:04;4.00;;;3.50;;
48205;SDS011;33995;48.202;16.260;2023-11-18T00:47:33;3.57;;;3.27;;
48205;SDS011;33995;48.202;16.260;2023-11-18T00:50:00;3.13;;;2.83;;
48205;SDS011;33995;48.202;16.260;2023-11-18T00:52:28;3.83;;;3.43;;
48205;SDS011;33995;48.202;16.260;2023-11-18T00:54:56;3.97;;;3.40;;
48205;SDS011;33995;48.202;16.260;2023-11-18T00:57:22;3.60;;;3.30;;
48205;SDS011;33995;48.202;16.260;2023-11-18T00:59:51;3.37;;;3.07;;
48205;SDS011;33995;48.202;16.260;2023-11-18T01:02:17;3.40;;;3.10;;
48205;SDS011;33995;48.202;16.260;2023-11-18T01:04:45;4.13;;;3.30;;
48205;SDS011;33995;48.202;16.260;2023-11-18T01:07:12;3.83;;;3.30;;
48205;SDS011;33995;48.202;16.260;2023-11-18T01:09:39;3.60;;;3.30;;
48205;SDS011;33995;48.202;16.260;2023-11-18T01:12:06;3.77;;;3.33;;
48205;SDS011;33995;48.202;16.260;2023-11-18T01:14:36;3.87;;;3.30;;
48205;SDS011;33995;48.202;16.260;2023-11-18T01:17:05;3.80;;;3.30;;
48205;SDS011;33995;48.202;16.260;2023-11-18T01:19:32;3.47;;;3.00;;
48205;SDS011;33995;48.202;16.260;2023-11-18T01:22:02;3.97;;;3.57;;
48205;SDS011;33995;48.202;16.260;2023-11-18T01:24:33;3.50;;;3.20;;
48205;SDS011;33995;48.202;16.260;2023-11-18T01:27:00;3.17;;;2.87;;
48205;SDS011;33995;48.202;16.260;2023-11-18T01:29:28;3.33;;;3.00;;
48205;SDS011;33995;48.202;16.260;2023-11-18T01:31:55;3.40;;;3.10;;
48205;SDS011;33995;48.202;16.260;2023-11-18T01:34:22;5.90;;;3.63;;
48205;SDS011;33995;48.202;16.260;2023-11-18T01:36:49;4.30;;;3.50;;
48205;SDS011;33995;48.202;16.260;2023-11-18T01:39:17;4.20;;;3.23;;
48205;SDS011;33995;48.202;16.260;2023-11-18T01:41:45;3.83;;;3.40;;
48205;SDS011;33995;48.202;16.260;2023-11-18T01:44:12;4.03;;;3.30;;
48205;SDS011;33995;48.202;16.260;2023-11-18T01:46:40;3.50;;;3.20;;
48205;SDS011;33995;48.202;16.260;2023-11-18T01:49:12;4.33;;;3.17;;
48205;SDS011;33995;48.202;16.260;2023-11-18T01:51:45;3.20;;;3.00;;
48205;SDS011;33995;48.202;16.260;2023-11-18T01:54:15;3.27;;;2.97;;
48205;SDS011;33995;48.202;16.260;2023-11-18T01:56:46;3.80;;;3.10;;
48205;SDS011;33995;48.202;16.260;2023-11-18T01:59:14;3.40;;;3.10;;
48205;SDS011;33995;48.202;16.260;2023-11-18T02:01:52;3.17;;;2.80;;
48205;SDS011;33995;48.202;16.260;2023-11-18T02:05:09;3.33;;;3.03;;
48205;SDS011;33995;48.202;16.260;2023-11-18T02:07:40;3.57;;;3.27;;
48205;SDS011;33995;48.202;16.260;2023-11-18T02:30:43;4.20;;;3.30;;
48205;SDS011;33995;48.202;16.260;2023-11-18T02:36:53;3.30;;;3.00;;
48205;SDS011;33995;48.202;16.260;2023-11-18T02:43:08;5.73;;;3.00;;
48205;SDS011;33995;48.202;16.260;2023-11-18T02:45:37;3.10;;;2.80;;
48205;SDS011;33995;48.202;16.260;2023-11-18T02:48:53;3.13;;;2.83;;
48205;SDS011;33995;48.202;16.260;2023-11-18T02:59:17;2.70;;;2.50;;
48205;SDS011;33995;48.202;16.260;2023-11-18T03:01:54;4.03;;;2.70;;
48205;SDS011;33995;48.202;16.260;2023-11-18T03:05:10;3.03;;;2.73;;
48205;SDS011;33995;48.202;16.260;2023-11-18T03:07:41;3.03;;;2.73;;
48205;SDS011;33995;48.202;16.260;2023-11-18T03:10:08;2.80;;;2.60;;
48205;SDS011;33995;48.202;16.260;2023-11-18T03:12:50;2.93;;;2.63;;
48205;SDS011;33995;48.202;16.260;2023-11-18T03:15:21;2.90;;;2.57;;
48205;SDS011;33995;48.202;16.260;2023-11-18T03:17:50;3.77;;;2.60;;
48205;SDS011;33995;48.202;16.260;2023-11-18T03:20:18;3.10;;;2.60;;
48205;SDS011;33995;48.202;16.260;2023-11-18T03:22:49;3.10;;;2.80;;
48205;SDS011;33995;48.202;16.260;2023-11-18T03:25:18;3.03;;;2.60;;
48205;SDS011;33995;48.202;16.260;2023-11-18T03:27:46;3.30;;;2.60;;
48205;SDS011;33995;48.202;16.260;2023-11-18T03:30:13;2.77;;;2.57;;
48205;SDS011;33995;48.202;16.260;2023-11-18T03:32:40;3.00;;;2.60;;
48205;SDS011;33995;48.202;16.260;2023-11-18T03:35:07;2.93;;;2.63;;
48205;SDS011;33995;48.202;16.260;2023-11-18T03:37:36;2.70;;;2.43;;
48205;SDS011;33995;48.202;16.260;2023-11-18T03:40:11;3.83;;;2.50;;
48205;SDS011;33995;48.202;16.260;2023-11-18T03:42:40;2.33;;;2.13;;
48205;SDS011;33995;48.202;16.260;2023-11-18T03:45:08;2.50;;;2.30;;
48205;SDS011;33995;48.202;16.260;2023-11-18T03:47:36;2.97;;;2.50;;
48205;SDS011;33995;48.202;16.260;2023-11-18T03:50:03;2.70;;;2.50;;
48205;SDS011;33995;48.202;16.260;2023-11-18T03:52:32;3.03;;;2.70;;
48205;SDS011;33995;48.202;16.260;2023-11-18T03:54:59;3.27;;;2.87;;
48205;SDS011;33995;48.202;16.260;2023-11-18T03:57:26;3.93;;;2.70;;
48205;SDS011;33995;48.202;16.260;2023-11-18T03:59:53;2.60;;;2.40;;
48205;SDS011;33995;48.202;16.260;2023-11-18T04:02:20;2.73;;;2.50;;
48205;SDS011;33995;48.202;16.260;2023-11-18T04:04:47;3.00;;;2.73;;
48205;SDS011;33995;48.202;16.260;2023-11-18T04:07:15;3.43;;;3.13;;
48205;SDS011;33995;48.202;16.260;2023-11-18T04:09:42;3.50;;;3.20;;
48205;SDS011;33995;48.202;16.260;2023-11-18T04:12:09;3.83;;;3.20;;
48205;SDS011;33995;48.202;16.260;2023-11-18T04:14:37;3.70;;;3.40;;
48205;SDS011;33995;48.202;16.260;2023-11-18T04:17:04;3.90;;;3.60;;
48205;SDS011;33995;48.202;16.260;2023-11-18T04:19:34;5.23;;;3.70;;
48205;SDS011;33995;48.202;16.260;2023-11-18T04:22:01;4.00;;;3.60;;
48205;SDS011;33995;48.202;16.260;2023-11-18T04:24:28;3.80;;;3.50;;
48205;SDS011;33995;48.202;16.260;2023-11-18T04:26:56;4.40;;;3.60;;
48205;SDS011;33995;48.202;16.260;2023-11-18T04:29:23;3.70;;;3.40;;
48205;SDS011;33995;48.202;16.260;2023-11-18T04:31:50;4.17;;;3.70;;
48205;SDS011;33995;48.202;16.260;2023-11-18T04:34:20;4.30;;;3.77;;
48205;SDS011;33995;48.202;16.260;2023-11-18T04:36:47;4.10;;;3.70;;
48205;SDS011;33995;48.202;16.260;2023-11-18T04:39:13;4.30;;;3.90;;
48205;SDS011;33995;48.202;16.260;2023-11-18T04:41:42;4.23;;;3.83;;
48205;SDS011;33995;48.202;16.260;2023-11-18T04:44:10;4.30;;;3.87;;
48205;SDS011;33995;48.202;16.260;2023-11-18T04:46:39;4.30;;;3.90;;
48205;SDS011;33995;48.202;16.260;2023-11-18T04:49:06;4.83;;;4.30;;
48205;SDS011;33995;48.202;16.260;2023-11-18T04:51:33;4.67;;;4.20;;
48205;SDS011;33995;48.202;16.260;2023-11-18T04:54:00;5.67;;;4.53;;
48205;SDS011;33995;48.202;16.260;2023-11-18T04:56:29;4.63;;;4.23;;
48205;SDS011;33995;48.202;16.260;2023-11-18T04:58:56;4.90;;;4.40;;
48205;SDS011;33995;48.202;16.260;2023-11-18T05:01:23;4.60;;;4.10;;
48205;SDS011;33995;48.202;16.260;2023-11-18T05:03:50;4.70;;;4.30;;
48205;SDS011;33995;48.202;16.260;2023-11-18T05:06:17;4.30;;;3.90;;
48205;SDS011;33995;48.202;16.260;2023-11-18T05:08:46;3.90;;;3.60;;
48205;SDS011;33995;48.202;16.260;2023-11-18T05:11:13;4.07;;;3.70;;
48205;SDS011;33995;48.202;16.260;2023-11-18T05:13:40;4.20;;;3.80;;
48205;SDS011;33995;48.202;16.260;2023-11-18T05:16:10;5.50;;;4.17;;
48205;SDS011;33995;48.202;16.260;2023-11-18T05:18:37;4.27;;;3.87;;
48205;SDS011;33995;48.202;16.260;2023-11-18T05:21:05;4.13;;;3.77;;
48205;SDS011;33995;48.202;16.260;2023-11-18T05:23:35;4.53;;;4.13;;
48205;SDS011;33995;48.202;16.260;2023-11-18T05:26:02;4.20;;;3.80;;
48205;SDS011;33995;48.202;16.260;2023-11-18T05:28:31;4.27;;;3.80;;
48205;SDS011;33995;48.202;16.260;2023-11-18T05:30:59;4.67;;;3.90;;
48205;SDS011;33995;48.202;16.260;2023-11-18T05:33:29;4.50;;;3.93;;
48205;SDS011;33995;48.202;16.260;2023-11-18T05:35:59;4.13;;;3.73;;
48205;SDS011;33995;48.202;16.260;2023-11-18T05:38:26;4.60;;;4.10;;
48205;SDS011;33995;48.202;16.260;2023-11-18T05:40:58;4.30;;;3.90;;
48205;SDS011;33995;48.202;16.260;2023-11-18T05:43:28;4.20;;;3.80;;
48205;SDS011;33995;48.202;16.260;2023-11-18T05:46:03;4.30;;;3.90;;
48205;SDS011;33995;48.202;16.260;2023-11-18T05:49:03;4.40;;;4.00;;
48205;SDS011;33995;48.202;16.260;2023-11-18T05:51:34;4.67;;;4.10;;
48205;SDS011;33995;48.202;16.260;2023-11-18T05:54:02;4.83;;;3.67;;
48205;SDS011;33995;48.202;16.260;2023-11-18T05:56:29;4.17;;;3.87;;
48205;SDS011;33995;48.202;16.260;2023-11-18T05:58:56;4.27;;;3.87;;
48205;SDS011;33995;48.202;16.260;2023-11-18T06:01:23;4.93;;;3.83;;
48205;SDS011;33995;48.202;16.260;2023-11-18T06:03:53;4.30;;;3.90;;
48205;SDS011;33995;48.202;16.260;2023-11-18T06:06:21;6.47;;;4.73;;
48205;SDS011;33995;48.202;16.260;2023-11-18T06:08:50;5.00;;;4.50;;
48205;SDS011;33995;48.202;16.260;2023-11-18T06:11:18;5.13;;;4.63;;
48205;SDS011;33995;48.202;16.260;2023-11-18T06:13:47;5.87;;;4.80;;
48205;SDS011;33995;48.202;16.260;2023-11-18T06:16:17;4.70;;;4.30;;
48205;SDS011;33995;48.202;16.260;2023-11-18T06:18:55;4.40;;;4.00;;
48205;SDS011;33995;48.202;16.260;2023-11-18T06:21:24;4.73;;;4.27;;
48205;SDS011;33995;48.202;16.260;2023-11-18T06:23:59;4.97;;;4.27;;
48205;SDS011;33995;48.202;16.260;2023-11-18T06:26:27;4.73;;;4.23;;
48205;SDS011;33995;48.202;16.260;2023-11-18T06:28:55;5.00;;;4.50;;
48205;SDS011;33995;48.202;16.260;2023-11-18T06:31:23;4.33;;;3.93;;
48205;SDS011;33995;48.202;16.260;2023-11-18T06:33:51;4.63;;;4.23;;
48205;SDS011;33995;48.202;16.260;2023-11-18T06:36:19;6.20;;;4.30;;
48205;SDS011;33995;48.202;16.260;2023-11-18T06:38:48;5.03;;;4.53;;
48205;SDS011;33995;48.202;16.260;2023-11-18T06:41:17;4.80;;;4.40;;
48205;SDS011;33995;48.202;16.260;2023-11-18T06:43:45;5.17;;;4.40;;
48205;SDS011;33995;48.202;16.260;2023-11-18T06:46:25;4.80;;;4.40;;
48205;SDS011;33995;48.202;16.260;2023-11-18T06:49:07;5.27;;;4.70;;
48205;SDS011;33995;48.202;16.260;2023-11-18T06:51:37;6.20;;;5.60;;
48205;SDS011;33995;48.202;16.260;2023-11-18T06:54:05;5.90;;;5.30;;
48205;SDS011;33995;48.202;16.260;2023-11-18T06:56:38;6.53;;;5.93;;
48205;SDS011;33995;48.202;16.260;2023-11-18T06:59:10;6.60;;;5.83;;
48205;SDS011;33995;48.202;16.260;2023-11-18T07:01:42;10.00;;;9.00;;
48205;SDS011;33995;48.202;16.260;2023-11-18T07:04:13;6.77;;;6.17;;
48205;SDS011;33995;48.202;16.260;2023-11-18T07:06:42;5.37;;;4.87;;
48205;SDS011;33995;48.202;16.260;2023-11-18T07:09:10;5.20;;;4.70;;
48205;SDS011;33995;48.202;16.260;2023-11-18T07:11:40;4.83;;;4.40;;
48205;SDS011;33995;48.202;16.260;2023-11-18T07:14:08;5.73;;;4.90;;
48205;SDS011;33995;48.202;16.260;2023-11-18T07:16:40;5.77;;;4.47;;
48205;SDS011;33995;48.202;16.260;2023-11-18T07:19:10;4.53;;;4.13;;
48205;SDS011;33995;48.202;16.260;2023-11-18T07:21:44;6.53;;;5.93;;
48205;SDS011;33995;48.202;16.260;2023-11-18T07:24:11;4.87;;;4.37;;
48205;SDS011;33995;48.202;16.260;2023-11-18T07:26:38;4.93;;;4.43;;
48205;SDS011;33995;48.202;16.260;2023-11-18T07:29:05;4.33;;;3.93;;
48205;SDS011;33995;48.202;16.260;2023-11-18T07:31:35;5.00;;;4.50;;
48205;SDS011;33995;48.202;16.260;2023-11-18T07:34:03;5.20;;;4.70;;
48205;SDS011;33995;48.202;16.260;2023-11-18T07:36:32;5.57;;;4.20;;
48205;SDS011;33995;48.202;16.260;2023-11-18T07:39:00;5.43;;;4.43;;
48205;SDS011;33995;48.202;16.260;2023-11-18T07:41:28;5.10;;;4.60;;
48205;SDS011;33995;48.202;16.260;2023-11-18T07:44:01;4.67;;;4.27;;
48205;SDS011;33995;48.202;16.260;2023-11-18T07:46:28;5.07;;;4.63;;
48205;SDS011;33995;48.202;16.260;2023-11-18T07:49:01;5.63;;;4.70;;
48205;SDS011;33995;48.202;16.260;2023-11-18T07:51:28;5.87;;;4.73;;
48205;SDS011;33995;48.202;16.260;2023-11-18T07:53:55;6.13;;;5.13;;
48205;SDS011;33995;48.202;16.260;2023-11-18T07:56:23;6.80;;;5.30;;
48205;SDS011;33995;48.202;16.260;2023-11-18T07:58:50;6.30;;;5.70;;
48205;SDS011;33995;48.202;16.260;2023-11-18T08:01:18;6.83;;;5.80;;
48205;SDS011;33995;48.202;16.260;2023-11-18T08:03:48;6.87;;;5.63;;
48205;SDS011;33995;48.202;16.260;2023-11-18T08:06:17;5.70;;;5.10;;
48205;SDS011;33995;48.202;16.260;2023-11-18T08:08:44;5.43;;;4.93;;
48205;SDS011;33995;48.202;16.260;2023-11-18T08:11:12;5.80;;;5.30;;
48205;SDS011;33995;48.202;16.260;2023-11-18T08:13:39;6.53;;;4.97;;
48205;SDS011;33995;48.202;16.260;2023-11-18T08:16:07;5.57;;;5.03;;
48205;SDS011;33995;48.202;16.260;2023-11-18T08:18:35;5.20;;;4.70;;
48205;SDS011;33995;48.202;16.260;2023-11-18T08:21:03;5.33;;;4.80;;
48205;SDS011;33995;48.202;16.260;2023-11-18T08:23:33;5.73;;;5.10;;
48205;SDS011;33995;48.202;16.260;2023-11-18T08:26:00;5.80;;;5.17;;
48205;SDS011;33995;48.202;16.260;2023-11-18T08:28:28;5.60;;;5.10;;
48205;SDS011;33995;48.202;16.260;2023-11-18T08:30:55;5.43;;;4.93;;
48205;SDS011;33995;48.202;16.260;2023-11-18T08:33:22;5.93;;;5.33;;
48205;SDS011;33995;48.202;16.260;2023-11-18T08:35:51;5.03;;;4.53;;
48205;SDS011;33995;48.202;16.260;2023-11-18T08:38:17;5.50;;;4.90;;
48205;SDS011;33995;48.202;16.260;2023-11-18T08:40:46;6.77;;;5.00;;
48205;SDS011;33995;48.202;16.260;2023-11-18T08:43:15;6.77;;;5.10;;
48205;SDS011;33995;48.202;16.260;2023-11-18T08:45:43;6.97;;;5.43;;
48205;SDS011;33995;48.202;16.260;2023-11-18T08:48:11;5.30;;;4.80;;
48205;SDS011;33995;48.202;16.260;2023-11-18T08:50:38;5.27;;;4.50;;
48205;SDS011;33995;48.202;16.260;2023-11-18T08:53:06;5.47;;;4.97;;
48205;SDS011;33995;48.202;16.260;2023-11-18T08:55:37;5.40;;;4.90;;
48205;SDS011;33995;48.202;16.260;2023-11-18T08:58:12;5.30;;;4.80;;
48205;SDS011;33995;48.202;16.260;2023-11-18T09:00:46;5.30;;;4.80;;
48205;SDS011;33995;48.202;16.260;2023-11-18T09:03:25;5.20;;;4.70;;
48205;SDS011;33995;48.202;16.260;2023-11-18T09:05:55;5.13;;;4.63;;
48205;SDS011;33995;48.202;16.260;2023-11-18T09:08:27;5.77;;;4.83;;
48205;SDS011;33995;48.202;16.260;2023-11-18T09:11:09;5.20;;;4.70;;
48205;SDS011;33995;48.202;16.260;2023-11-18T09:13:44;5.50;;;4.70;;
48205;SDS011;33995;48.202;16.260;2023-11-18T09:16:16;6.57;;;5.03;;
48205;SDS011;33995;48.202;16.260;2023-11-18T09:18:43;5.60;;;4.73;;
48205;SDS011;33995;48.202;16.260;2023-11-18T09:21:13;5.17;;;4.70;;
48205;SDS011;33995;48.202;16.260;2023-11-18T09:23:42;5.30;;;4.80;;
48205;SDS011;33995;48.202;16.260;2023-11-18T09:26:12;5.37;;;4.87;;
48205;SDS011;33995;48.202;16.260;2023-11-18T09:28:39;5.53;;;4.90;;
48205;SDS011;33995;48.202;16.260;2023-11-18T09:31:07;5.27;;;4.67;;
48205;SDS011;33995;48.202;16.260;2023-11-18T09:33:39;5.10;;;4.70;;
48205;SDS011;33995;48.202;16.260;2023-11-18T09:36:11;5.17;;;4.73;;
48205;SDS011;33995;48.202;16.260;2023-11-18T09:38:39;4.60;;;4.20;;
48205;SDS011;33995;48.202;16.260;2023-11-18T09:41:07;5.23;;;4.73;;
48205;SDS011;33995;48.202;16.260;2023-11-18T09:43:39;4.90;;;4.43;;
48205;SDS011;33995;48.202;16.260;2023-11-18T09:46:15;5.47;;;4.50;;
48205;SDS011;33995;48.202;16.260;2023-11-18T09:48:49;5.10;;;4.60;;
48205;SDS011;33995;48.202;16.260;2023-11-18T09:51:23;5.80;;;5.30;;
48205;SDS011;33995;48.202;16.260;2023-11-18T09:53:54;5.60;;;5.10;;
48205;SDS011;33995;48.202;16.260;2023-11-18T09:59:10;7.00;;;5.80;;
48205;SDS011;33995;48.202;16.260;2023-11-18T10:01:44;6.37;;;5.77;;
48205;SDS011;33995;48.202;16.260;2023-11-18T10:04:20;5.80;;;5.30;;
48205;SDS011;33995;48.202;16.260;2023-11-18T10:06:47;6.30;;;5.53;;
48205;SDS011;33995;48.202;16.260;2023-11-18T10:09:19;8.00;;;5.60;;
48205;SDS011;33995;48.202;16.260;2023-11-18T10:11:55;6.87;;;5.50;;
48205;SDS011;33995;48.202;16.260;2023-11-18T10:14:33;5.67;;;5.07;;
48205;SDS011;33995;48.202;16.260;2023-11-18T10:17:06;6.77;;;5.43;;
48205;SDS011;33995;48.202;16.260;2023-11-18T10:22:25;5.90;;;5.30;;
48205;SDS011;33995;48.202;16.260;2023-11-18T10:24:57;5.93;;;5.43;;
48205;SDS011;33995;48.202;16.260;2023-11-18T10:27:27;8.47;;;7.63;;
48205;SDS011;33995;48.202;16.260;2023-11-18T10:29:55;14.13;;;11.83;;
48205;SDS011;33995;48.202;16.260;2023-11-18T10:32:23;7.57;;;6.87;;
48205;SDS011;33995;48.202;16.260;2023-11-18T10:34:57;7.20;;;6.30;;
48205;SDS011;33995;48.202;16.260;2023-11-18T10:37:25;5.77;;;5.17;;
48205;SDS011;33995;48.202;16.260;2023-11-18T10:39:54;6.03;;;5.43;;
48205;SDS011;33995;48.202;16.260;2023-11-18T10:42:21;5.60;;;5.10;;
48205;SDS011;33995;48.202;16.260;2023-11-18T10:44:57;5.83;;;5.23;;
48205;SDS011;33995;48.202;16.260;2023-11-18T10:47:25;5.67;;;5.17;;
48205;SDS011;33995;48.202;16.260;2023-11-18T10:49:56;6.50;;;5.90;;
48205;SDS011;33995;48.202;16.260;2023-11-18T10:52:24;5.80;;;5.27;;
48205;SDS011;33995;48.202;16.260;2023-11-18T10:54:52;5.63;;;5.10;;
48205;SDS011;33995;48.202;16.260;2023-11-18T10:57:23;6.23;;;5.40;;
48205;SDS011;33995;48.202;16.260;2023-11-18T11:00:04;5.57;;;5.07;;
48205;SDS011;33995;48.202;16.260;2023-11-18T11:02:42;6.07;;;5.57;;
48205;SDS011;33995;48.202;16.260;2023-11-18T11:05:09;5.63;;;5.03;;
48205;SDS011;33995;48.202;16.260;2023-11-18T11:07:47;7.70;;;6.07;;
48205;SDS011;33995;48.202;16.260;2023-11-18T11:10:15;6.77;;;6.13;;
48205;SDS011;33995;48.202;16.260;2023-11-18T11:12:43;6.33;;;5.73;;
48205;SDS011;33995;48.202;16.260;2023-11-18T11:15:29;6.27;;;5.67;;
48205;SDS011;33995;48.202;16.260;2023-11-18T11:18:14;6.73;;;5.40;;
48205;SDS011;33995;48.202;16.260;2023-11-18T11:23:53;6.07;;;5.47;;
48205;SDS011;33995;48.202;16.260;2023-11-18T11:26:40;6.17;;;5.57;;
48205;SDS011;33995;48.202;16.260;2023-11-18T11:29:32;6.43;;;5.83;;
48205;SDS011;33995;48.202;16.260;2023-11-18T11:32:15;6.67;;;6.07;;
48205;SDS011;33995;48.202;16.260;2023-11-18T11:35:00;5.93;;;5.43;;
48205;SDS011;33995;48.202;16.260;2023-11-18T11:37:35;5.70;;;5.20;;
48205;SDS011;33995;48.202;16.260;2023-11-18T11:40:04;5.10;;;4.70;;
48205;SDS011;33995;48.202;16.260;2023-11-18T11:42:36;5.70;;;5.20;;
48205;SDS011;33995;48.202;16.260;2023-11-18T11:45:06;5.93;;;5.30;;
48205;SDS011;33995;48.202;16.260;2023-11-18T11:47:49;4.77;;;4.37;;
48205;SDS011;33995;48.202;16.260;2023-11-18T11:50:22;4.83;;;4.43;;
48205;SDS011;33995;48.202;16.260;2023-11-18T11:53:01;5.17;;;4.70;;
48205;SDS011;33995;48.202;16.260;2023-11-18T11:55:52;5.37;;;4.87;;
48205;SDS011;33995;48.202;16.260;2023-11-18T11:58:33;5.43;;;4.93;;
48205;SDS011;33995;48.202;16.260;2023-11-18T12:01:37;5.37;;;4.97;;
48205;SDS011;33995;48.202;16.260;2023-11-18T12:04:04;4.83;;;4.40;;
48205;SDS011;33995;48.202;16.260;2023-11-18T12:06:41;5.53;;;5.03;;
48205;SDS011;33995;48.202;16.260;2023-11-18T12:09:09;5.87;;;5.27;;
48205;SDS011;33995;48.202;16.260;2023-11-18T12:11:36;6.40;;;5.30;;
48205;SDS011;33995;48.202;16.260;2023-11-18T12:14:06;6.57;;;5.97;;
48205;SDS011;33995;48.202;16.260;2023-11-18T12:17:03;8.27;;;7.57;;
48205;SDS011;33995;48.202;16.260;2023-11-18T12:19:37;6.17;;;5.57;;
48205;SDS011;33995;48.202;16.260;2023-11-18T12:22:13;6.47;;;5.87;;
48205;SDS011;33995;48.202;16.260;2023-11-18T12:24:45;5.97;;;5.23;;
48205;SDS011;33995;48.202;16.260;2023-11-18T12:41:25;6.20;;;5.60;;
48205;SDS011;33995;48.202;16.260;2023-11-18T12:44:18;5.87;;;5.37;;
48205;SDS011;33995;48.202;16.260;2023-11-18T12:47:02;7.47;;;5.60;;
48205;SDS011;33995;48.202;16.260;2023-11-18T12:49:41;5.90;;;5.30;;
48205;SDS011;33995;48.202;16.260;2023-11-18T12:52:12;6.17;;;5.53;;
48205;SDS011;33995;48.202;16.260;2023-11-18T12:54:41;6.33;;;5.40;;
48205;SDS011;33995;48.202;16.260;2023-11-18T12:57:10;6.03;;;5.43;;
48205;SDS011;33995;48.202;16.260;2023-11-18T12:59:41;6.00;;;5.40;;
48205;SDS011;33995;48.202;16.260;2023-11-18T13:02:10;5.63;;;5.13;;
48205;SDS011;33995;48.202;16.260;2023-11-18T13:04:48;6.30;;;5.10;;
48205;SDS011;33995;48.202;16.260;2023-11-18T13:07:16;5.00;;;4.60;;
48205;SDS011;33995;48.202;16.260;2023-11-18T13:09:44;5.47;;;4.60;;
48205;SDS011;33995;48.202;16.260;2023-11-18T13:12:12;5.17;;;4.77;;
48205;SDS011;33995;48.202;16.260;2023-11-18T13:14:46;5.30;;;4.43;;
48205;SDS011;33995;48.202;16.260;2023-11-18T13:17:16;4.97;;;4.50;;
48205;SDS011;33995;48.202;16.260;2023-11-18T13:19:44;5.23;;;4.73;;
48205;SDS011;33995;48.202;16.260;2023-11-18T13:22:12;5.43;;;4.67;;
48205;SDS011;33995;48.202;16.260;2023-11-18T13:24:41;5.23;;;4.73;;
48205;SDS011;33995;48.202;16.260;2023-11-18T13:27:18;4.90;;;4.50;;
48205;SDS011;33995;48.202;16.260;2023-11-18T13:29:49;4.70;;;4.30;;
48205;SDS011;33995;48.202;16.260;2023-11-18T13:32:18;4.83;;;4.43;;
48205;SDS011;33995;48.202;16.260;2023-11-18T13:34:50;4.90;;;4.30;;
48205;SDS011;33995;48.202;16.260;2023-11-18T13:37:18;4.60;;;4.30;;
48205;SDS011;33995;48.202;16.260;2023-11-18T13:39:55;5.00;;;4.20;;
48205;SDS011;33995;48.202;16.260;2023-11-18T13:42:23;4.73;;;4.27;;
48205;SDS011;33995;48.202;16.260;2023-11-18T13:44:52;5.37;;;4.37;;
48205;SDS011;33995;48.202;16.260;2023-11-18T13:47:20;4.63;;;4.23;;
48205;SDS011;33995;48.202;16.260;2023-11-18T13:49:49;4.60;;;4.20;;
48205;SDS011;33995;48.202;16.260;2023-11-18T13:52:17;4.53;;;4.13;;
48205;SDS011;33995;48.202;16.260;2023-11-18T13:54:46;5.20;;;4.70;;
48205;SDS011;33995;48.202;16.260;2023-11-18T13:57:14;6.23;;;5.63;;
48205;SDS011;33995;48.202;16.260;2023-11-18T13:59:43;6.77;;;5.93;;
48205;SDS011;33995;48.202;16.260;2023-11-18T14:02:11;6.17;;;5.57;;
48205;SDS011;33995;48.202;16.260;2023-11-18T14:04:39;6.10;;;5.30;;
48205;SDS011;33995;48.202;16.260;2023-11-18T14:07:09;5.97;;;5.47;;
48205;SDS011;33995;48.202;16.260;2023-11-18T14:09:43;5.77;;;5.27;;
48205;SDS011;33995;48.202;16.260;2023-11-18T14:12:12;5.70;;;5.20;;
48205;SDS011;33995;48.202;16.260;2023-11-18T14:14:40;5.40;;;4.90;;
48205;SDS011;33995;48.202;16.260;2023-11-18T14:17:08;4.73;;;4.33;;
48205;SDS011;33995;48.202;16.260;2023-11-18T14:19:37;6.00;;;5.40;;
48205;SDS011;33995;48.202;16.260;2023-11-18T14:22:04;6.80;;;6.07;;
48205;SDS011;33995;48.202;16.260;2023-11-18T14:24:34;6.20;;;5.60;;
48205;SDS011;33995;48.202;16.260;2023-11-18T14:27:01;5.90;;;5.40;;
48205;SDS011;33995;48.202;16.260;2023-11-18T14:29:33;6.20;;;5.60;;
48205;SDS011;33995;48.202;16.260;2023-11-18T14:32:00;6.17;;;5.57;;
48205;SDS011;33995;48.202;16.260;2023-11-18T14:34:27;5.63;;;5.03;;
48205;SDS011;33995;48.202;16.260;2023-11-18T14:36:54;4.77;;;4.33;;
48205;SDS011;33995;48.202;16.260;2023-11-18T14:39:22;4.60;;;4.10;;
48205;SDS011;33995;48.202;16.260;2023-11-18T14:41:50;3.87;;;3.57;;
48205;SDS011;33995;48.202;16.260;2023-11-18T14:44:17;3.90;;;3.60;;
48205;SDS011;33995;48.202;16.260;2023-11-18T14:46:44;3.97;;;3.67;;
48205;SDS011;33995;48.202;16.260;2023-11-18T14:49:12;3.87;;;3.57;;
48205;SDS011;33995;48.202;16.260;2023-11-18T14:51:43;3.97;;;3.57;;
48205;SDS011;33995;48.202;16.260;2023-11-18T14:54:10;4.53;;;3.63;;
48205;SDS011;33995;48.202;16.260;2023-11-18T14:56:37;4.30;;;3.67;;
48205;SDS011;33995;48.202;16.260;2023-11-18T14:59:04;4.20;;;3.90;;
48205;SDS011;33995;48.202;16.260;2023-11-18T15:01:32;4.17;;;3.77;;
48205;SDS011;33995;48.202;16.260;2023-11-18T15:03:59;3.57;;;3.27;;
48205;SDS011;33995;48.202;16.260;2023-11-18T15:06:30;3.80;;;3.50;;
48205;SDS011;33995;48.202;16.260;2023-11-18T15:08:57;3.70;;;3.40;;
48205;SDS011;33995;48.202;16.260;2023-11-18T15:11:24;4.60;;;3.53;;
48205;SDS011;33995;48.202;16.260;2023-11-18T15:13:51;3.80;;;3.50;;
48205;SDS011;33995;48.202;16.260;2023-11-18T15:16:20;3.80;;;3.50;;
48205;SDS011;33995;48.202;16.260;2023-11-18T15:18:48;3.93;;;3.47;;
48205;SDS011;33995;48.202;16.260;2023-11-18T15:21:19;3.67;;;3.30;;
48205;SDS011;33995;48.202;16.260;2023-11-18T15:23:46;2.97;;;2.70;;
48205;SDS011;33995;48.202;16.260;2023-11-18T15:26:16;2.80;;;2.60;;
48205;SDS011;33995;48.202;16.260;2023-11-18T15:28:44;3.00;;;2.70;;
48205;SDS011;33995;48.202;16.260;2023-11-18T15:31:11;2.97;;;2.73;;
48205;SDS011;33995;48.202;16.260;2023-11-18T15:33:39;4.07;;;2.70;;
48205;SDS011;33995;48.202;16.260;2023-11-18T15:36:06;3.37;;;2.70;;
48205;SDS011;33995;48.202;16.260;2023-11-18T15:38:34;3.20;;;2.90;;
48205;SDS011;33995;48.202;16.260;2023-11-18T15:41:02;3.80;;;3.33;;
48205;SDS011;33995;48.202;16.260;2023-11-18T15:43:29;3.47;;;3.00;;
48205;SDS011;33995;48.202;16.260;2023-11-18T15:45:56;3.33;;;3.03;;
48205;SDS011;33995;48.202;16.260;2023-11-18T15:48:25;4.03;;;3.30;;
48205;SDS011;33995;48.202;16.260;2023-11-18T15:50:52;3.70;;;3.30;;